sensor_id;sensor_type;location;lat;lon;timestamp;P1;durP1;ratioP1;P2;durP2;ratioP2
71679;SDS011;59512;42.662;23.254;2023-12-20T00:01:38;43.70;;;26.00;;
71679;SDS011;59512;42.662;23.254;2023-12-20T00:04:03;42.67;;;23.07;;
71679;SDS011;59512;42.662;23.254;2023-12-20T00:06:29;38.33;;;21.17;;
71679;SDS011;59512;42.662;23.254;2023-12-20T00:08:55;28.23;;;16.55;;
71679;SDS011;59512;42.662;23.254;2023-12-20T00:11:20;47.97;;;28.30;;
71679;SDS011;59512;42.662;23.254;2023-12-20T00:13:45;44.20;;;25.00;;
71679;SDS011;59512;42.662;23.254;2023-12-20T00:16:11;36.47;;;21.53;;
71679;SDS011;59512;42.662;23.254;2023-12-20T00:18:36;37.65;;;22.65;;
71679;SDS011;59512;42.662;23.254;2023-12-20T00:21:02;34.10;;;18.87;;
71679;SDS011;59512;42.662;23.254;2023-12-20T00:23:27;33.43;;;18.43;;
71679;SDS011;59512;42.662;23.254;2023-12-20T00:25:53;36.00;;;20.17;;
71679;SDS011;59512;42.662;23.254;2023-12-20T00:28:18;36.17;;;19.67;;
71679;SDS011;59512;42.662;23.254;2023-12-20T00:30:43;34.38;;;17.55;;
71679;SDS011;59512;42.662;23.254;2023-12-20T00:33:09;28.80;;;17.00;;
71679;SDS011;59512;42.662;23.254;2023-12-20T00:35:34;31.47;;;17.30;;
71679;SDS011;59512;42.662;23.254;2023-12-20T00:38:00;30.37;;;16.67;;
71679;SDS011;59512;42.662;23.254;2023-12-20T00:40:25;31.40;;;17.23;;
71679;SDS011;59512;42.662;23.254;2023-12-20T00:42:50;28.03;;;15.63;;
71679;SDS011;59512;42.662;23.254;2023-12-20T00:45:16;29.50;;;16.07;;
71679;SDS011;59512;42.662;23.254;2023-12-20T00:47:41;25.37;;;14.70;;
71679;SDS011;59512;42.662;23.254;2023-12-20T00:50:08;30.35;;;17.65;;
71679;SDS011;59512;42.662;23.254;2023-12-20T00:52:34;31.53;;;17.80;;
71679;SDS011;59512;42.662;23.254;2023-12-20T00:54:59;36.92;;;20.27;;
71679;SDS011;59512;42.662;23.254;2023-12-20T00:57:24;37.70;;;19.27;;
71679;SDS011;59512;42.662;23.254;2023-12-20T00:59:50;31.43;;;17.97;;
71679;SDS011;59512;42.662;23.254;2023-12-20T01:02:15;26.27;;;15.30;;
71679;SDS011;59512;42.662;23.254;2023-12-20T01:04:41;26.77;;;15.27;;
71679;SDS011;59512;42.662;23.254;2023-12-20T01:07:06;28.83;;;14.90;;
71679;SDS011;59512;42.662;23.254;2023-12-20T01:09:32;25.42;;;14.30;;
71679;SDS011;59512;42.662;23.254;2023-12-20T01:11:58;27.10;;;13.70;;
71679;SDS011;59512;42.662;23.254;2023-12-20T01:14:23;22.27;;;13.27;;
71679;SDS011;59512;42.662;23.254;2023-12-20T01:16:48;23.30;;;14.10;;
71679;SDS011;59512;42.662;23.254;2023-12-20T01:19:14;24.83;;;15.23;;
71679;SDS011;59512;42.662;23.254;2023-12-20T01:21:40;21.92;;;13.00;;
71679;SDS011;59512;42.662;23.254;2023-12-20T01:24:05;21.93;;;13.43;;
71679;SDS011;59512;42.662;23.254;2023-12-20T01:26:30;22.83;;;13.23;;
71679;SDS011;59512;42.662;23.254;2023-12-20T01:28:56;22.90;;;13.82;;
71679;SDS011;59512;42.662;23.254;2023-12-20T01:31:22;20.17;;;12.15;;
71679;SDS011;59512;42.662;23.254;2023-12-20T01:33:48;21.80;;;11.27;;
71679;SDS011;59512;42.662;23.254;2023-12-20T01:36:13;23.23;;;12.97;;
71679;SDS011;59512;42.662;23.254;2023-12-20T01:38:39;29.13;;;15.13;;
71679;SDS011;59512;42.662;23.254;2023-12-20T01:41:04;31.60;;;17.02;;
71679;SDS011;59512;42.662;23.254;2023-12-20T01:43:29;26.73;;;15.53;;
71679;SDS011;59512;42.662;23.254;2023-12-20T01:45:58;30.30;;;17.07;;
71679;SDS011;59512;42.662;23.254;2023-12-20T01:48:24;45.72;;;23.92;;
71679;SDS011;59512;42.662;23.254;2023-12-20T01:50:50;28.52;;;15.98;;
71679;SDS011;59512;42.662;23.254;2023-12-20T01:53:16;30.97;;;17.73;;
71679;SDS011;59512;42.662;23.254;2023-12-20T01:55:42;32.00;;;18.08;;
71679;SDS011;59512;42.662;23.254;2023-12-20T01:58:08;26.15;;;14.25;;
71679;SDS011;59512;42.662;23.254;2023-12-20T02:00:35;24.43;;;14.00;;
71679;SDS011;59512;42.662;23.254;2023-12-20T02:03:01;27.98;;;16.27;;
71679;SDS011;59512;42.662;23.254;2023-12-20T02:05:27;31.58;;;17.02;;
71679;SDS011;59512;42.662;23.254;2023-12-20T02:07:53;28.37;;;15.43;;
71679;SDS011;59512;42.662;23.254;2023-12-20T02:10:18;26.88;;;16.42;;
71679;SDS011;59512;42.662;23.254;2023-12-20T02:12:44;28.10;;;15.80;;
71679;SDS011;59512;42.662;23.254;2023-12-20T02:15:09;27.57;;;15.63;;
71679;SDS011;59512;42.662;23.254;2023-12-20T02:17:35;24.50;;;14.80;;
71679;SDS011;59512;42.662;23.254;2023-12-20T02:20:01;25.13;;;14.02;;
71679;SDS011;59512;42.662;23.254;2023-12-20T02:22:27;26.85;;;14.95;;
71679;SDS011;59512;42.662;23.254;2023-12-20T02:24:53;28.13;;;15.30;;
71679;SDS011;59512;42.662;23.254;2023-12-20T02:27:18;25.27;;;15.60;;
71679;SDS011;59512;42.662;23.254;2023-12-20T02:29:44;26.52;;;14.88;;
71679;SDS011;59512;42.662;23.254;2023-12-20T02:32:12;25.60;;;14.80;;
71679;SDS011;59512;42.662;23.254;2023-12-20T02:34:37;26.92;;;14.48;;
71679;SDS011;59512;42.662;23.254;2023-12-20T02:37:03;30.02;;;16.52;;
71679;SDS011;59512;42.662;23.254;2023-12-20T02:39:28;34.37;;;16.50;;
71679;SDS011;59512;42.662;23.254;2023-12-20T02:41:54;28.87;;;15.43;;
71679;SDS011;59512;42.662;23.254;2023-12-20T02:44:19;27.83;;;15.90;;
71679;SDS011;59512;42.662;23.254;2023-12-20T02:46:44;30.97;;;15.90;;
71679;SDS011;59512;42.662;23.254;2023-12-20T02:49:10;29.20;;;15.98;;
71679;SDS011;59512;42.662;23.254;2023-12-20T02:51:35;27.50;;;14.20;;
71679;SDS011;59512;42.662;23.254;2023-12-20T02:54:03;24.83;;;14.27;;
71679;SDS011;59512;42.662;23.254;2023-12-20T02:56:29;21.25;;;13.02;;
71679;SDS011;59512;42.662;23.254;2023-12-20T02:58:54;22.90;;;13.60;;
71679;SDS011;59512;42.662;23.254;2023-12-20T03:01:20;25.10;;;13.80;;
71679;SDS011;59512;42.662;23.254;2023-12-20T03:03:45;24.85;;;13.93;;
71679;SDS011;59512;42.662;23.254;2023-12-20T03:06:11;23.70;;;14.17;;
71679;SDS011;59512;42.662;23.254;2023-12-20T03:08:36;25.73;;;14.00;;
71679;SDS011;59512;42.662;23.254;2023-12-20T03:11:02;26.03;;;14.20;;
71679;SDS011;59512;42.662;23.254;2023-12-20T03:13:27;28.37;;;15.93;;
71679;SDS011;59512;42.662;23.254;2023-12-20T03:15:52;26.90;;;14.48;;
71679;SDS011;59512;42.662;23.254;2023-12-20T03:18:18;27.30;;;14.20;;
71679;SDS011;59512;42.662;23.254;2023-12-20T03:20:43;23.77;;;14.10;;
71679;SDS011;59512;42.662;23.254;2023-12-20T03:23:09;25.33;;;14.23;;
71679;SDS011;59512;42.662;23.254;2023-12-20T03:25:34;24.30;;;14.40;;
71679;SDS011;59512;42.662;23.254;2023-12-20T03:27:59;25.07;;;14.60;;
71679;SDS011;59512;42.662;23.254;2023-12-20T03:30:25;23.80;;;13.02;;
71679;SDS011;59512;42.662;23.254;2023-12-20T03:32:50;23.30;;;13.67;;
71679;SDS011;59512;42.662;23.254;2023-12-20T03:35:16;23.90;;;13.97;;
71679;SDS011;59512;42.662;23.254;2023-12-20T03:37:41;26.47;;;13.97;;
71679;SDS011;59512;42.662;23.254;2023-12-20T03:40:07;27.40;;;15.27;;
71679;SDS011;59512;42.662;23.254;2023-12-20T03:42:32;31.73;;;18.37;;
71679;SDS011;59512;42.662;23.254;2023-12-20T03:44:58;29.03;;;17.00;;
71679;SDS011;59512;42.662;23.254;2023-12-20T03:47:23;37.00;;;20.77;;
71679;SDS011;59512;42.662;23.254;2023-12-20T03:49:48;28.33;;;17.60;;
71679;SDS011;59512;42.662;23.254;2023-12-20T03:52:14;37.43;;;20.67;;
71679;SDS011;59512;42.662;23.254;2023-12-20T03:54:39;30.00;;;18.63;;
71679;SDS011;59512;42.662;23.254;2023-12-20T03:57:07;30.58;;;17.25;;
71679;SDS011;59512;42.662;23.254;2023-12-20T03:59:36;33.05;;;17.98;;
71679;SDS011;59512;42.662;23.254;2023-12-20T04:02:02;31.40;;;17.98;;
71679;SDS011;59512;42.662;23.254;2023-12-20T04:04:27;32.88;;;17.70;;
71679;SDS011;59512;42.662;23.254;2023-12-20T04:06:52;27.93;;;16.50;;
71679;SDS011;59512;42.662;23.254;2023-12-20T04:09:18;32.30;;;18.27;;
71679;SDS011;59512;42.662;23.254;2023-12-20T04:11:43;31.77;;;18.37;;
71679;SDS011;59512;42.662;23.254;2023-12-20T04:14:09;40.00;;;22.73;;
71679;SDS011;59512;42.662;23.254;2023-12-20T04:16:35;31.80;;;17.30;;
71679;SDS011;59512;42.662;23.254;2023-12-20T04:19:00;31.50;;;18.53;;
71679;SDS011;59512;42.662;23.254;2023-12-20T04:21:26;40.90;;;22.13;;
71679;SDS011;59512;42.662;23.254;2023-12-20T04:23:51;29.75;;;16.95;;
71679;SDS011;59512;42.662;23.254;2023-12-20T04:26:16;28.73;;;16.33;;
71679;SDS011;59512;42.662;23.254;2023-12-20T04:28:42;43.30;;;28.03;;
71679;SDS011;59512;42.662;23.254;2023-12-20T04:31:07;39.93;;;24.97;;
71679;SDS011;59512;42.662;23.254;2023-12-20T04:33:33;31.30;;;17.45;;
71679;SDS011;59512;42.662;23.254;2023-12-20T04:35:58;25.00;;;16.20;;
71679;SDS011;59512;42.662;23.254;2023-12-20T04:38:25;36.33;;;23.80;;
71679;SDS011;59512;42.662;23.254;2023-12-20T04:40:50;29.08;;;18.38;;
71679;SDS011;59512;42.662;23.254;2023-12-20T04:43:16;28.60;;;16.23;;
71679;SDS011;59512;42.662;23.254;2023-12-20T04:45:41;29.83;;;17.63;;
71679;SDS011;59512;42.662;23.254;2023-12-20T04:48:07;32.40;;;20.67;;
71679;SDS011;59512;42.662;23.254;2023-12-20T04:50:32;38.33;;;21.93;;
71679;SDS011;59512;42.662;23.254;2023-12-20T04:52:58;41.22;;;24.90;;
71679;SDS011;59512;42.662;23.254;2023-12-20T04:55:23;40.10;;;23.93;;
71679;SDS011;59512;42.662;23.254;2023-12-20T04:57:49;45.07;;;26.83;;
71679;SDS011;59512;42.662;23.254;2023-12-20T05:00:14;41.10;;;25.55;;
71679;SDS011;59512;42.662;23.254;2023-12-20T05:02:40;32.33;;;20.73;;
71679;SDS011;59512;42.662;23.254;2023-12-20T05:05:06;36.25;;;22.00;;
71679;SDS011;59512;42.662;23.254;2023-12-20T05:07:31;31.47;;;19.67;;
71679;SDS011;59512;42.662;23.254;2023-12-20T05:09:57;33.92;;;21.58;;
71679;SDS011;59512;42.662;23.254;2023-12-20T05:12:23;44.05;;;25.75;;
71679;SDS011;59512;42.662;23.254;2023-12-20T05:14:48;41.20;;;25.57;;
71679;SDS011;59512;42.662;23.254;2023-12-20T05:17:14;41.88;;;26.13;;
71679;SDS011;59512;42.662;23.254;2023-12-20T05:19:39;41.88;;;26.50;;
71679;SDS011;59512;42.662;23.254;2023-12-20T05:22:05;38.77;;;24.07;;
71679;SDS011;59512;42.662;23.254;2023-12-20T05:24:30;42.77;;;28.00;;
71679;SDS011;59512;42.662;23.254;2023-12-20T05:26:55;38.87;;;24.00;;
71679;SDS011;59512;42.662;23.254;2023-12-20T05:29:21;42.37;;;25.63;;
71679;SDS011;59512;42.662;23.254;2023-12-20T05:31:46;52.53;;;32.15;;
71679;SDS011;59512;42.662;23.254;2023-12-20T05:34:12;53.53;;;31.48;;
71679;SDS011;59512;42.662;23.254;2023-12-20T05:36:37;47.40;;;29.40;;
71679;SDS011;59512;42.662;23.254;2023-12-20T05:39:04;46.60;;;28.90;;
71679;SDS011;59512;42.662;23.254;2023-12-20T05:41:30;45.00;;;29.00;;
71679;SDS011;59512;42.662;23.254;2023-12-20T05:43:55;62.00;;;35.97;;
71679;SDS011;59512;42.662;23.254;2023-12-20T05:46:23;63.10;;;39.03;;
71679;SDS011;59512;42.662;23.254;2023-12-20T05:48:48;83.07;;;50.47;;
71679;SDS011;59512;42.662;23.254;2023-12-20T05:51:14;67.47;;;41.58;;
71679;SDS011;59512;42.662;23.254;2023-12-20T05:53:40;57.90;;;36.00;;
71679;SDS011;59512;42.662;23.254;2023-12-20T05:56:06;54.65;;;33.75;;
71679;SDS011;59512;42.662;23.254;2023-12-20T05:58:34;60.43;;;38.67;;
71679;SDS011;59512;42.662;23.254;2023-12-20T06:00:59;72.75;;;41.03;;
71679;SDS011;59512;42.662;23.254;2023-12-20T06:03:25;60.97;;;37.87;;
71679;SDS011;59512;42.662;23.254;2023-12-20T06:05:50;58.63;;;36.23;;
71679;SDS011;59512;42.662;23.254;2023-12-20T06:08:16;58.10;;;36.07;;
71679;SDS011;59512;42.662;23.254;2023-12-20T06:10:41;61.60;;;38.05;;
71679;SDS011;59512;42.662;23.254;2023-12-20T06:13:07;89.07;;;52.63;;
71679;SDS011;59512;42.662;23.254;2023-12-20T06:15:32;71.10;;;42.50;;
71679;SDS011;59512;42.662;23.254;2023-12-20T06:17:58;83.17;;;49.20;;
71679;SDS011;59512;42.662;23.254;2023-12-20T06:20:23;143.05;;;86.15;;
71679;SDS011;59512;42.662;23.254;2023-12-20T06:22:49;123.83;;;74.80;;
71679;SDS011;59512;42.662;23.254;2023-12-20T06:25:14;140.07;;;78.43;;
71679;SDS011;59512;42.662;23.254;2023-12-20T06:27:40;148.80;;;84.13;;
71679;SDS011;59512;42.662;23.254;2023-12-20T06:30:06;131.85;;;73.65;;
71679;SDS011;59512;42.662;23.254;2023-12-20T06:32:32;140.98;;;79.68;;
71679;SDS011;59512;42.662;23.254;2023-12-20T06:34:59;142.80;;;79.93;;
71679;SDS011;59512;42.662;23.254;2023-12-20T06:37:24;144.77;;;77.73;;
71679;SDS011;59512;42.662;23.254;2023-12-20T06:39:50;134.93;;;76.93;;
71679;SDS011;59512;42.662;23.254;2023-12-20T06:42:15;134.40;;;77.37;;
71679;SDS011;59512;42.662;23.254;2023-12-20T06:44:40;135.03;;;73.83;;
71679;SDS011;59512;42.662;23.254;2023-12-20T06:47:06;129.20;;;69.93;;
71679;SDS011;59512;42.662;23.254;2023-12-20T06:49:32;140.75;;;74.07;;
71679;SDS011;59512;42.662;23.254;2023-12-20T06:51:57;140.13;;;75.47;;
71679;SDS011;59512;42.662;23.254;2023-12-20T06:54:22;147.23;;;79.53;;
71679;SDS011;59512;42.662;23.254;2023-12-20T06:56:48;144.50;;;79.43;;
71679;SDS011;59512;42.662;23.254;2023-12-20T06:59:13;153.00;;;82.30;;
71679;SDS011;59512;42.662;23.254;2023-12-20T07:01:39;138.60;;;75.57;;
71679;SDS011;59512;42.662;23.254;2023-12-20T07:04:05;141.20;;;78.20;;
71679;SDS011;59512;42.662;23.254;2023-12-20T07:06:30;149.27;;;78.45;;
71679;SDS011;59512;42.662;23.254;2023-12-20T07:08:55;141.30;;;80.30;;
71679;SDS011;59512;42.662;23.254;2023-12-20T07:11:21;144.90;;;79.93;;
71679;SDS011;59512;42.662;23.254;2023-12-20T07:13:46;162.20;;;86.10;;
71679;SDS011;59512;42.662;23.254;2023-12-20T07:16:12;166.70;;;90.87;;
71679;SDS011;59512;42.662;23.254;2023-12-20T07:18:38;160.48;;;82.35;;
71679;SDS011;59512;42.662;23.254;2023-12-20T07:21:03;158.77;;;85.87;;
71679;SDS011;59512;42.662;23.254;2023-12-20T07:23:29;149.95;;;83.05;;
71679;SDS011;59512;42.662;23.254;2023-12-20T07:25:54;150.35;;;83.53;;
71679;SDS011;59512;42.662;23.254;2023-12-20T07:28:19;143.97;;;79.07;;
71679;SDS011;59512;42.662;23.254;2023-12-20T07:30:45;160.00;;;88.23;;
71679;SDS011;59512;42.662;23.254;2023-12-20T07:33:10;147.33;;;84.13;;
71679;SDS011;59512;42.662;23.254;2023-12-20T07:35:37;143.98;;;81.05;;
71679;SDS011;59512;42.662;23.254;2023-12-20T07:38:03;149.43;;;80.07;;
71679;SDS011;59512;42.662;23.254;2023-12-20T07:40:28;149.70;;;80.78;;
71679;SDS011;59512;42.662;23.254;2023-12-20T07:42:54;154.80;;;82.77;;
71679;SDS011;59512;42.662;23.254;2023-12-20T07:45:19;179.07;;;89.70;;
71679;SDS011;59512;42.662;23.254;2023-12-20T07:47:44;166.00;;;86.27;;
71679;SDS011;59512;42.662;23.254;2023-12-20T07:50:10;167.53;;;86.40;;
71679;SDS011;59512;42.662;23.254;2023-12-20T07:52:35;154.87;;;81.80;;
71679;SDS011;59512;42.662;23.254;2023-12-20T07:55:01;162.30;;;83.22;;
71679;SDS011;59512;42.662;23.254;2023-12-20T07:57:28;151.93;;;81.33;;
71679;SDS011;59512;42.662;23.254;2023-12-20T07:59:54;160.75;;;86.88;;
71679;SDS011;59512;42.662;23.254;2023-12-20T08:02:20;173.57;;;98.47;;
71679;SDS011;59512;42.662;23.254;2023-12-20T08:04:45;155.77;;;85.90;;
71679;SDS011;59512;42.662;23.254;2023-12-20T08:07:10;161.07;;;88.37;;
71679;SDS011;59512;42.662;23.254;2023-12-20T08:09:36;162.93;;;86.00;;
71679;SDS011;59512;42.662;23.254;2023-12-20T08:12:01;143.77;;;82.82;;
71679;SDS011;59512;42.662;23.254;2023-12-20T08:14:27;159.13;;;87.22;;
71679;SDS011;59512;42.662;23.254;2023-12-20T08:16:53;161.30;;;84.67;;
71679;SDS011;59512;42.662;23.254;2023-12-20T08:19:18;160.33;;;88.73;;
71679;SDS011;59512;42.662;23.254;2023-12-20T08:21:43;157.43;;;85.57;;
71679;SDS011;59512;42.662;23.254;2023-12-20T08:24:09;155.67;;;83.07;;
71679;SDS011;59512;42.662;23.254;2023-12-20T08:26:34;153.13;;;84.77;;
71679;SDS011;59512;42.662;23.254;2023-12-20T08:29:00;163.88;;;88.35;;
71679;SDS011;59512;42.662;23.254;2023-12-20T08:31:25;161.40;;;87.57;;
71679;SDS011;59512;42.662;23.254;2023-12-20T08:33:51;153.63;;;86.57;;
71679;SDS011;59512;42.662;23.254;2023-12-20T08:36:18;160.55;;;91.38;;
71679;SDS011;59512;42.662;23.254;2023-12-20T08:38:46;165.60;;;90.07;;
71679;SDS011;59512;42.662;23.254;2023-12-20T08:41:11;175.27;;;89.90;;
71679;SDS011;59512;42.662;23.254;2023-12-20T08:43:37;176.83;;;95.73;;
71679;SDS011;59512;42.662;23.254;2023-12-20T08:46:04;188.52;;;95.07;;
71679;SDS011;59512;42.662;23.254;2023-12-20T08:48:29;186.77;;;98.07;;
71679;SDS011;59512;42.662;23.254;2023-12-20T08:50:55;194.80;;;99.67;;
71679;SDS011;59512;42.662;23.254;2023-12-20T08:53:20;203.10;;;107.07;;
71679;SDS011;59512;42.662;23.254;2023-12-20T08:55:46;195.67;;;105.40;;
71679;SDS011;59512;42.662;23.254;2023-12-20T08:58:12;185.38;;;95.13;;
71679;SDS011;59512;42.662;23.254;2023-12-20T09:00:37;195.90;;;96.33;;
71679;SDS011;59512;42.662;23.254;2023-12-20T09:03:03;191.00;;;99.13;;
71679;SDS011;59512;42.662;23.254;2023-12-20T09:05:29;204.95;;;102.53;;
71679;SDS011;59512;42.662;23.254;2023-12-20T09:07:55;201.47;;;98.83;;
71679;SDS011;59512;42.662;23.254;2023-12-20T09:10:20;202.10;;;99.60;;
71679;SDS011;59512;42.662;23.254;2023-12-20T09:12:50;184.98;;;95.53;;
71679;SDS011;59512;42.662;23.254;2023-12-20T09:15:16;200.32;;;101.22;;
71679;SDS011;59512;42.662;23.254;2023-12-20T09:17:42;194.90;;;100.37;;
71679;SDS011;59512;42.662;23.254;2023-12-20T09:20:08;203.25;;;104.47;;
71679;SDS011;59512;42.662;23.254;2023-12-20T09:22:34;202.15;;;103.50;;
71679;SDS011;59512;42.662;23.254;2023-12-20T09:25:00;196.90;;;98.53;;
71679;SDS011;59512;42.662;23.254;2023-12-20T09:27:26;193.95;;;102.72;;
71679;SDS011;59512;42.662;23.254;2023-12-20T09:29:52;195.37;;;101.37;;
71679;SDS011;59512;42.662;23.254;2023-12-20T09:32:18;202.18;;;102.78;;
71679;SDS011;59512;42.662;23.254;2023-12-20T09:34:45;217.20;;;110.30;;
71679;SDS011;59512;42.662;23.254;2023-12-20T09:37:10;211.00;;;109.70;;
71679;SDS011;59512;42.662;23.254;2023-12-20T09:39:36;204.27;;;104.67;;
71679;SDS011;59512;42.662;23.254;2023-12-20T09:42:02;199.32;;;102.13;;
71679;SDS011;59512;42.662;23.254;2023-12-20T09:44:29;204.98;;;105.20;;
71679;SDS011;59512;42.662;23.254;2023-12-20T09:46:55;203.63;;;104.93;;
71679;SDS011;59512;42.662;23.254;2023-12-20T09:49:21;200.38;;;104.65;;
71679;SDS011;59512;42.662;23.254;2023-12-20T09:51:47;210.60;;;106.15;;
71679;SDS011;59512;42.662;23.254;2023-12-20T09:54:14;217.23;;;109.35;;
71679;SDS011;59512;42.662;23.254;2023-12-20T09:56:39;196.57;;;99.68;;
71679;SDS011;59512;42.662;23.254;2023-12-20T09:59:04;184.57;;;99.00;;
71679;SDS011;59512;42.662;23.254;2023-12-20T10:01:30;194.83;;;100.53;;
71679;SDS011;59512;42.662;23.254;2023-12-20T10:03:56;222.77;;;116.75;;
71679;SDS011;59512;42.662;23.254;2023-12-20T10:06:23;209.50;;;108.22;;
71679;SDS011;59512;42.662;23.254;2023-12-20T10:08:49;194.20;;;103.77;;
71679;SDS011;59512;42.662;23.254;2023-12-20T10:11:14;192.63;;;104.80;;
71679;SDS011;59512;42.662;23.254;2023-12-20T10:13:40;189.57;;;103.23;;
71679;SDS011;59512;42.662;23.254;2023-12-20T10:16:08;186.75;;;101.25;;
71679;SDS011;59512;42.662;23.254;2023-12-20T10:18:34;186.40;;;96.50;;
71679;SDS011;59512;42.662;23.254;2023-12-20T10:21:00;185.88;;;98.53;;
71679;SDS011;59512;42.662;23.254;2023-12-20T10:23:25;190.23;;;100.90;;
71679;SDS011;59512;42.662;23.254;2023-12-20T10:26:00;185.77;;;94.75;;
71679;SDS011;59512;42.662;23.254;2023-12-20T10:28:25;178.40;;;95.00;;
71679;SDS011;59512;42.662;23.254;2023-12-20T10:30:54;183.88;;;97.32;;
71679;SDS011;59512;42.662;23.254;2023-12-20T10:33:23;168.88;;;91.10;;
71679;SDS011;59512;42.662;23.254;2023-12-20T10:35:50;175.27;;;96.80;;
71679;SDS011;59512;42.662;23.254;2023-12-20T10:38:15;183.00;;;96.20;;
71679;SDS011;59512;42.662;23.254;2023-12-20T10:40:40;176.90;;;95.23;;
71679;SDS011;59512;42.662;23.254;2023-12-20T10:43:06;175.80;;;91.33;;
71679;SDS011;59512;42.662;23.254;2023-12-20T10:45:33;167.77;;;91.53;;
71679;SDS011;59512;42.662;23.254;2023-12-20T10:47:59;172.65;;;91.75;;
71679;SDS011;59512;42.662;23.254;2023-12-20T10:50:25;166.93;;;93.27;;
71679;SDS011;59512;42.662;23.254;2023-12-20T10:52:51;173.45;;;94.28;;
71679;SDS011;59512;42.662;23.254;2023-12-20T10:55:20;171.40;;;93.57;;
71679;SDS011;59512;42.662;23.254;2023-12-20T10:57:52;160.52;;;90.15;;
71679;SDS011;59512;42.662;23.254;2023-12-20T11:00:20;165.68;;;91.78;;
71679;SDS011;59512;42.662;23.254;2023-12-20T11:02:46;158.63;;;89.27;;
71679;SDS011;59512;42.662;23.254;2023-12-20T11:05:33;163.98;;;91.20;;
71679;SDS011;59512;42.662;23.254;2023-12-20T11:08:07;159.05;;;90.88;;
71679;SDS011;59512;42.662;23.254;2023-12-20T11:10:59;162.60;;;90.97;;
71679;SDS011;59512;42.662;23.254;2023-12-20T11:13:30;158.15;;;91.13;;
71679;SDS011;59512;42.662;23.254;2023-12-20T11:15:58;163.80;;;93.20;;
71679;SDS011;59512;42.662;23.254;2023-12-20T11:18:30;157.02;;;89.38;;
71679;SDS011;59512;42.662;23.254;2023-12-20T11:20:55;160.60;;;94.35;;
71679;SDS011;59512;42.662;23.254;2023-12-20T11:23:34;158.32;;;93.57;;
71679;SDS011;59512;42.662;23.254;2023-12-20T11:26:01;145.23;;;87.07;;
71679;SDS011;59512;42.662;23.254;2023-12-20T11:28:27;148.20;;;85.30;;
71679;SDS011;59512;42.662;23.254;2023-12-20T11:30:55;145.05;;;87.22;;
71679;SDS011;59512;42.662;23.254;2023-12-20T11:33:25;149.65;;;87.47;;
71679;SDS011;59512;42.662;23.254;2023-12-20T11:35:51;149.05;;;85.43;;
71679;SDS011;59512;42.662;23.254;2023-12-20T11:38:17;153.73;;;87.53;;
71679;SDS011;59512;42.662;23.254;2023-12-20T11:40:45;152.45;;;87.45;;
71679;SDS011;59512;42.662;23.254;2023-12-20T11:43:24;153.98;;;86.45;;
71679;SDS011;59512;42.662;23.254;2023-12-20T11:45:54;148.93;;;86.40;;
71679;SDS011;59512;42.662;23.254;2023-12-20T11:48:20;152.85;;;87.50;;
71679;SDS011;59512;42.662;23.254;2023-12-20T11:50:45;153.70;;;86.83;;
71679;SDS011;59512;42.662;23.254;2023-12-20T11:53:11;158.93;;;88.60;;
71679;SDS011;59512;42.662;23.254;2023-12-20T11:55:36;162.53;;;89.57;;
71679;SDS011;59512;42.662;23.254;2023-12-20T11:58:01;157.55;;;88.15;;
71679;SDS011;59512;42.662;23.254;2023-12-20T12:00:27;161.33;;;90.57;;
71679;SDS011;59512;42.662;23.254;2023-12-20T12:02:56;157.87;;;85.43;;
71679;SDS011;59512;42.662;23.254;2023-12-20T12:05:22;157.68;;;90.40;;
71679;SDS011;59512;42.662;23.254;2023-12-20T12:07:47;157.83;;;87.93;;
71679;SDS011;59512;42.662;23.254;2023-12-20T12:10:13;153.98;;;87.85;;
71679;SDS011;59512;42.662;23.254;2023-12-20T12:12:39;156.20;;;86.47;;
71679;SDS011;59512;42.662;23.254;2023-12-20T12:15:05;160.67;;;87.43;;
71679;SDS011;59512;42.662;23.254;2023-12-20T12:17:30;163.32;;;90.55;;
71679;SDS011;59512;42.662;23.254;2023-12-20T12:20:02;159.63;;;90.80;;
71679;SDS011;59512;42.662;23.254;2023-12-20T12:22:29;164.48;;;91.25;;
71679;SDS011;59512;42.662;23.254;2023-12-20T12:24:55;168.40;;;96.32;;
71679;SDS011;59512;42.662;23.254;2023-12-20T12:27:25;156.37;;;88.47;;
71679;SDS011;59512;42.662;23.254;2023-12-20T12:30:00;164.60;;;89.60;;
71679;SDS011;59512;42.662;23.254;2023-12-20T12:32:27;162.57;;;90.07;;
71679;SDS011;59512;42.662;23.254;2023-12-20T12:34:53;151.35;;;86.22;;
71679;SDS011;59512;42.662;23.254;2023-12-20T12:37:18;157.83;;;86.87;;
71679;SDS011;59512;42.662;23.254;2023-12-20T12:39:43;171.07;;;93.00;;
71679;SDS011;59512;42.662;23.254;2023-12-20T12:42:09;163.80;;;90.40;;
71679;SDS011;59512;42.662;23.254;2023-12-20T12:44:34;159.80;;;87.60;;
71679;SDS011;59512;42.662;23.254;2023-12-20T12:46:59;162.53;;;90.40;;
71679;SDS011;59512;42.662;23.254;2023-12-20T12:49:25;159.70;;;85.35;;
71679;SDS011;59512;42.662;23.254;2023-12-20T12:51:53;160.27;;;82.70;;
71679;SDS011;59512;42.662;23.254;2023-12-20T12:54:21;153.30;;;83.65;;
71679;SDS011;59512;42.662;23.254;2023-12-20T12:56:46;142.63;;;76.70;;
71679;SDS011;59512;42.662;23.254;2023-12-20T12:59:12;137.50;;;75.05;;
71679;SDS011;59512;42.662;23.254;2023-12-20T13:01:38;139.70;;;74.37;;
71679;SDS011;59512;42.662;23.254;2023-12-20T13:04:04;139.52;;;73.95;;
71679;SDS011;59512;42.662;23.254;2023-12-20T13:06:31;149.30;;;76.03;;
71679;SDS011;59512;42.662;23.254;2023-12-20T13:08:57;136.23;;;71.63;;
71679;SDS011;59512;42.662;23.254;2023-12-20T13:11:23;132.23;;;70.15;;
71679;SDS011;59512;42.662;23.254;2023-12-20T13:13:48;128.23;;;67.43;;
71679;SDS011;59512;42.662;23.254;2023-12-20T13:16:13;126.30;;;68.47;;
71679;SDS011;59512;42.662;23.254;2023-12-20T13:18:40;134.77;;;70.23;;
71679;SDS011;59512;42.662;23.254;2023-12-20T13:21:07;138.95;;;73.38;;
71679;SDS011;59512;42.662;23.254;2023-12-20T13:23:33;141.85;;;72.63;;
71679;SDS011;59512;42.662;23.254;2023-12-20T13:25:59;137.07;;;71.83;;
71679;SDS011;59512;42.662;23.254;2023-12-20T13:28:24;147.47;;;74.90;;
71679;SDS011;59512;42.662;23.254;2023-12-20T13:30:50;142.77;;;76.73;;
71679;SDS011;59512;42.662;23.254;2023-12-20T13:33:15;150.13;;;79.57;;
71679;SDS011;59512;42.662;23.254;2023-12-20T13:35:40;151.35;;;75.80;;
71679;SDS011;59512;42.662;23.254;2023-12-20T13:38:06;150.07;;;77.90;;
71679;SDS011;59512;42.662;23.254;2023-12-20T13:40:32;145.93;;;78.80;;
71679;SDS011;59512;42.662;23.254;2023-12-20T13:42:58;149.73;;;81.07;;
71679;SDS011;59512;42.662;23.254;2023-12-20T13:45:23;156.57;;;82.67;;
71679;SDS011;59512;42.662;23.254;2023-12-20T13:47:50;170.98;;;86.55;;
71679;SDS011;59512;42.662;23.254;2023-12-20T13:50:15;179.40;;;91.23;;
71679;SDS011;59512;42.662;23.254;2023-12-20T13:52:41;166.60;;;88.47;;
71679;SDS011;59512;42.662;23.254;2023-12-20T13:55:06;159.67;;;83.67;;